sensor_id;sensor_type;location;lat;lon;timestamp;temperature;humidity
39453;DHT22;25154;-33.684;151.102;2023-07-22T00:04:15;11.30;99.90
39453;DHT22;25154;-33.684;151.102;2023-07-22T00:09:18;11.60;99.90
39453;DHT22;25154;-33.684;151.102;2023-07-22T00:14:21;11.70;99.90
39453;DHT22;25154;-33.684;151.102;2023-07-22T00:19:25;12.00;99.90
39453;DHT22;25154;-33.684;151.102;2023-07-22T00:24:27;12.30;99.90
39453;DHT22;25154;-33.684;151.102;2023-07-22T00:29:30;12.50;99.90
39453;DHT22;25154;-33.684;151.102;2023-07-22T00:34:33;12.60;99.90
39453;DHT22;25154;-33.684;151.102;2023-07-22T00:39:36;12.70;99.90
39453;DHT22;25154;-33.684;151.102;2023-07-22T00:44:38;13.00;99.90
39453;DHT22;25154;-33.684;151.102;2023-07-22T00:49:41;13.20;99.90
39453;DHT22;25154;-33.684;151.102;2023-07-22T00:54:43;13.60;99.90
39453;DHT22;25154;-33.684;151.102;2023-07-22T00:59:46;13.70;99.90
39453;DHT22;25154;-33.684;151.102;2023-07-22T01:04:49;14.10;99.90
39453;DHT22;25154;-33.684;151.102;2023-07-22T01:09:56;13.80;99.90
39453;DHT22;25154;-33.684;151.102;2023-07-22T01:15:02;14.10;99.90
39453;DHT22;25154;-33.684;151.102;2023-07-22T01:20:09;14.10;99.90
39453;DHT22;25154;-33.684;151.102;2023-07-22T01:25:11;14.60;99.90
39453;DHT22;25154;-33.684;151.102;2023-07-22T01:30:14;14.90;99.90
39453;DHT22;25154;-33.684;151.102;2023-07-22T01:35:20;14.70;99.90
39453;DHT22;25154;-33.684;151.102;2023-07-22T01:40:25;14.30;99.90
39453;DHT22;25154;-33.684;151.102;2023-07-22T01:45:27;14.60;99.90
39453;DHT22;25154;-33.684;151.102;2023-07-22T01:50:29;15.00;99.90
39453;DHT22;25154;-33.684;151.102;2023-07-22T01:55:33;14.80;99.90
39453;DHT22;25154;-33.684;151.102;2023-07-22T02:00:35;15.40;99.90
39453;DHT22;25154;-33.684;151.102;2023-07-22T02:05:37;15.20;99.40
39453;DHT22;25154;-33.684;151.102;2023-07-22T02:10:40;15.50;98.70
39453;DHT22;25154;-33.684;151.102;2023-07-22T02:15:42;15.70;98.10
39453;DHT22;25154;-33.684;151.102;2023-07-22T02:20:44;15.70;98.10
39453;DHT22;25154;-33.684;151.102;2023-07-22T02:25:54;15.80;97.90
39453;DHT22;25154;-33.684;151.102;2023-07-22T02:31:01;15.70;97.00
39453;DHT22;25154;-33.684;151.102;2023-07-22T02:36:08;15.70;97.70
39453;DHT22;25154;-33.684;151.102;2023-07-22T02:41:10;16.40;96.10
39453;DHT22;25154;-33.684;151.102;2023-07-22T02:46:13;15.90;97.50
39453;DHT22;25154;-33.684;151.102;2023-07-22T02:51:15;15.80;96.70
39453;DHT22;25154;-33.684;151.102;2023-07-22T02:56:17;16.50;95.60
39453;DHT22;25154;-33.684;151.102;2023-07-22T03:01:20;16.70;94.80
39453;DHT22;25154;-33.684;151.102;2023-07-22T03:06:22;16.70;95.60
39453;DHT22;25154;-33.684;151.102;2023-07-22T03:11:24;16.60;94.80
39453;DHT22;25154;-33.684;151.102;2023-07-22T03:16:27;17.20;93.90
39453;DHT22;25154;-33.684;151.102;2023-07-22T03:21:29;17.20;94.60
39453;DHT22;25154;-33.684;151.102;2023-07-22T03:26:31;17.20;94.30
39453;DHT22;25154;-33.684;151.102;2023-07-22T03:31:34;17.00;94.00
39453;DHT22;25154;-33.684;151.102;2023-07-22T03:36:36;17.00;94.10
39453;DHT22;25154;-33.684;151.102;2023-07-22T03:41:38;16.90;94.10
39453;DHT22;25154;-33.684;151.102;2023-07-22T03:46:40;17.60;92.30
39453;DHT22;25154;-33.684;151.102;2023-07-22T03:51:43;16.90;92.90
39453;DHT22;25154;-33.684;151.102;2023-07-22T03:56:45;17.10;92.80
39453;DHT22;25154;-33.684;151.102;2023-07-22T04:01:47;17.40;92.80
39453;DHT22;25154;-33.684;151.102;2023-07-22T04:06:50;17.80;91.90
39453;DHT22;25154;-33.684;151.102;2023-07-22T04:11:52;18.90;92.60
39453;DHT22;25154;-33.684;151.102;2023-07-22T04:16:55;18.80;91.90
39453;DHT22;25154;-33.684;151.102;2023-07-22T04:21:57;19.10;90.70
39453;DHT22;25154;-33.684;151.102;2023-07-22T04:27:01;19.00;90.10
39453;DHT22;25154;-33.684;151.102;2023-07-22T04:32:04;19.50;90.50
39453;DHT22;25154;-33.684;151.102;2023-07-22T04:37:06;19.90;88.00
39453;DHT22;25154;-33.684;151.102;2023-07-22T04:42:09;20.10;87.50
39453;DHT22;25154;-33.684;151.102;2023-07-22T04:47:11;17.90;91.00
39453;DHT22;25154;-33.684;151.102;2023-07-22T04:52:13;16.90;92.30
39453;DHT22;25154;-33.684;151.102;2023-07-22T04:57:16;16.50;94.00
39453;DHT22;25154;-33.684;151.102;2023-07-22T05:02:18;16.60;94.80
39453;DHT22;25154;-33.684;151.102;2023-07-22T05:07:20;16.80;93.80
39453;DHT22;25154;-33.684;151.102;2023-07-22T05:12:23;16.80;94.10
39453;DHT22;25154;-33.684;151.102;2023-07-22T05:17:25;16.70;94.10
39453;DHT22;25154;-33.684;151.102;2023-07-22T05:22:30;16.60;95.00
39453;DHT22;25154;-33.684;151.102;2023-07-22T05:27:33;23.90;82.70
39453;DHT22;25154;-33.684;151.102;2023-07-22T05:32:36;25.20;78.40
39453;DHT22;25154;-33.684;151.102;2023-07-22T05:37:38;23.50;81.00
39453;DHT22;25154;-33.684;151.102;2023-07-22T05:42:41;19.20;92.00
39453;DHT22;25154;-33.684;151.102;2023-07-22T05:47:43;23.70;81.70
39453;DHT22;25154;-33.684;151.102;2023-07-22T05:52:45;25.10;77.70
39453;DHT22;25154;-33.684;151.102;2023-07-22T05:57:49;25.30;78.20
39453;DHT22;25154;-33.684;151.102;2023-07-22T06:02:52;22.30;81.40
39453;DHT22;25154;-33.684;151.102;2023-07-22T06:07:54;18.60;92.90
39453;DHT22;25154;-33.684;151.102;2023-07-22T06:12:58;16.90;94.80
39453;DHT22;25154;-33.684;151.102;2023-07-22T06:18:01;16.40;98.50
39453;DHT22;25154;-33.684;151.102;2023-07-22T06:23:04;16.00;98.60
39453;DHT22;25154;-33.684;151.102;2023-07-22T06:28:07;16.30;99.30
39453;DHT22;25154;-33.684;151.102;2023-07-22T06:33:10;16.00;98.90
39453;DHT22;25154;-33.684;151.102;2023-07-22T06:38:12;15.20;99.90
39453;DHT22;25154;-33.684;151.102;2023-07-22T06:43:14;14.40;99.90
39453;DHT22;25154;-33.684;151.102;2023-07-22T06:48:17;13.90;99.90
39453;DHT22;25154;-33.684;151.102;2023-07-22T06:53:19;13.50;99.90
39453;DHT22;25154;-33.684;151.102;2023-07-22T06:58:22;13.20;99.90
39453;DHT22;25154;-33.684;151.102;2023-07-22T07:03:24;13.00;99.90
39453;DHT22;25154;-33.684;151.102;2023-07-22T07:08:27;12.40;99.90
39453;DHT22;25154;-33.684;151.102;2023-07-22T07:13:29;12.40;99.90
39453;DHT22;25154;-33.684;151.102;2023-07-22T07:18:31;12.00;99.90
39453;DHT22;25154;-33.684;151.102;2023-07-22T07:23:33;11.80;99.90
39453;DHT22;25154;-33.684;151.102;2023-07-22T07:28:36;11.60;99.90
39453;DHT22;25154;-33.684;151.102;2023-07-22T07:38:40;11.30;99.90
39453;DHT22;25154;-33.684;151.102;2023-07-22T07:43:43;11.10;99.90
39453;DHT22;25154;-33.684;151.102;2023-07-22T07:48:47;11.00;99.90
39453;DHT22;25154;-33.684;151.102;2023-07-22T07:53:50;10.90;99.90
39453;DHT22;25154;-33.684;151.102;2023-07-22T07:58:53;10.80;99.90
39453;DHT22;25154;-33.684;151.102;2023-07-22T08:03:56;10.50;99.90
39453;DHT22;25154;-33.684;151.102;2023-07-22T08:08:58;10.40;99.90
39453;DHT22;25154;-33.684;151.102;2023-07-22T08:14:01;10.30;99.90
39453;DHT22;25154;-33.684;151.102;2023-07-22T08:19:03;10.20;99.90
39453;DHT22;25154;-33.684;151.102;2023-07-22T08:24:05;10.10;99.90
39453;DHT22;25154;-33.684;151.102;2023-07-22T08:29:08;10.20;99.90
39453;DHT22;25154;-33.684;151.102;2023-07-22T08:34:12;10.00;99.90
39453;DHT22;25154;-33.684;151.102;2023-07-22T08:39:14;9.80;99.90
39453;DHT22;25154;-33.684;151.102;2023-07-22T08:44:20;9.90;99.90
39453;DHT22;25154;-33.684;151.102;2023-07-22T08:49:23;9.60;99.90
39453;DHT22;25154;-33.684;151.102;2023-07-22T08:54:27;9.40;99.90
39453;DHT22;25154;-33.684;151.102;2023-07-22T08:59:30;9.30;99.90
39453;DHT22;25154;-33.684;151.102;2023-07-22T09:04:32;9.40;99.90
39453;DHT22;25154;-33.684;151.102;2023-07-22T09:09:35;9.00;99.90
39453;DHT22;25154;-33.684;151.102;2023-07-22T09:14:38;9.20;99.90
39453;DHT22;25154;-33.684;151.102;2023-07-22T09:19:42;9.20;99.90
39453;DHT22;25154;-33.684;151.102;2023-07-22T09:24:44;9.10;99.90
39453;DHT22;25154;-33.684;151.102;2023-07-22T09:29:46;8.50;99.90
39453;DHT22;25154;-33.684;151.102;2023-07-22T09:34:56;8.80;99.90
39453;DHT22;25154;-33.684;151.102;2023-07-22T09:39:59;8.70;99.90
39453;DHT22;25154;-33.684;151.102;2023-07-22T09:45:01;8.80;99.90
39453;DHT22;25154;-33.684;151.102;2023-07-22T09:50:04;8.50;99.90
39453;DHT22;25154;-33.684;151.102;2023-07-22T09:55:06;8.70;99.90
39453;DHT22;25154;-33.684;151.102;2023-07-22T10:00:12;8.70;99.90
39453;DHT22;25154;-33.684;151.102;2023-07-22T10:05:19;8.40;99.90
39453;DHT22;25154;-33.684;151.102;2023-07-22T10:10:35;8.30;99.90
39453;DHT22;25154;-33.684;151.102;2023-07-22T10:15:38;8.30;99.90
39453;DHT22;25154;-33.684;151.102;2023-07-22T10:20:41;7.90;99.90
39453;DHT22;25154;-33.684;151.102;2023-07-22T10:25:46;8.30;99.90
39453;DHT22;25154;-33.684;151.102;2023-07-22T10:30:51;8.00;99.90
39453;DHT22;25154;-33.684;151.102;2023-07-22T10:36:06;8.30;99.90
39453;DHT22;25154;-33.684;151.102;2023-07-22T10:41:16;7.70;99.90
39453;DHT22;25154;-33.684;151.102;2023-07-22T10:46:19;7.60;99.90
39453;DHT22;25154;-33.684;151.102;2023-07-22T10:51:36;7.70;99.90
39453;DHT22;25154;-33.684;151.102;2023-07-22T10:56:46;7.50;99.90
39453;DHT22;25154;-33.684;151.102;2023-07-22T11:01:49;7.60;99.90
39453;DHT22;25154;-33.684;151.102;2023-07-22T11:06:54;7.30;99.90
39453;DHT22;25154;-33.684;151.102;2023-07-22T11:11:59;7.40;99.90
39453;DHT22;25154;-33.684;151.102;2023-07-22T11:17:05;7.60;99.90
39453;DHT22;25154;-33.684;151.102;2023-07-22T11:22:10;7.20;99.90
39453;DHT22;25154;-33.684;151.102;2023-07-22T11:27:13;7.00;99.90
39453;DHT22;25154;-33.684;151.102;2023-07-22T11:32:20;7.00;99.90
39453;DHT22;25154;-33.684;151.102;2023-07-22T11:37:28;7.00;99.90
39453;DHT22;25154;-33.684;151.102;2023-07-22T11:42:32;7.00;99.90
39453;DHT22;25154;-33.684;151.102;2023-07-22T11:47:36;7.00;99.90
39453;DHT22;25154;-33.684;151.102;2023-07-22T11:52:39;7.00;99.90
39453;DHT22;25154;-33.684;151.102;2023-07-22T11:57:51;7.30;99.90
39453;DHT22;25154;-33.684;151.102;2023-07-22T12:02:54;6.60;99.90
39453;DHT22;25154;-33.684;151.102;2023-07-22T12:07:59;6.80;99.90
39453;DHT22;25154;-33.684;151.102;2023-07-22T12:13:02;6.80;99.90
39453;DHT22;25154;-33.684;151.102;2023-07-22T12:18:04;6.70;99.90
39453;DHT22;25154;-33.684;151.102;2023-07-22T12:23:07;6.70;99.90
39453;DHT22;25154;-33.684;151.102;2023-07-22T12:28:11;6.90;99.90
39453;DHT22;25154;-33.684;151.102;2023-07-22T12:33:14;6.60;99.90
39453;DHT22;25154;-33.684;151.102;2023-07-22T12:38:17;6.80;99.90
39453;DHT22;25154;-33.684;151.102;2023-07-22T12:43:20;6.40;99.90
39453;DHT22;25154;-33.684;151.102;2023-07-22T12:48:22;6.90;99.90
39453;DHT22;25154;-33.684;151.102;2023-07-22T12:53:26;6.90;99.90
39453;DHT22;25154;-33.684;151.102;2023-07-22T12:58:29;6.50;99.90
39453;DHT22;25154;-33.684;151.102;2023-07-22T13:03:32;6.40;99.90
39453;DHT22;25154;-33.684;151.102;2023-07-22T13:08:34;6.50;99.90
39453;DHT22;25154;-33.684;151.102;2023-07-22T13:13:37;6.30;99.90
39453;DHT22;25154;-33.684;151.102;2023-07-22T13:18:40;6.60;99.90
39453;DHT22;25154;-33.684;151.102;2023-07-22T13:23:42;6.50;99.90
39453;DHT22;25154;-33.684;151.102;2023-07-22T13:28:45;6.30;99.90
39453;DHT22;25154;-33.684;151.102;2023-07-22T13:33:48;6.10;99.90
39453;DHT22;25154;-33.684;151.102;2023-07-22T13:38:50;6.60;99.90
39453;DHT22;25154;-33.684;151.102;2023-07-22T13:43:53;6.40;99.90
39453;DHT22;25154;-33.684;151.102;2023-07-22T13:48:56;6.50;99.90
39453;DHT22;25154;-33.684;151.102;2023-07-22T13:53:59;6.50;99.90
39453;DHT22;25154;-33.684;151.102;2023-07-22T13:59:01;6.30;99.90
39453;DHT22;25154;-33.684;151.102;2023-07-22T14:04:06;6.00;99.90
39453;DHT22;25154;-33.684;151.102;2023-07-22T14:09:09;6.50;99.90
39453;DHT22;25154;-33.684;151.102;2023-07-22T14:14:11;6.20;99.90
39453;DHT22;25154;-33.684;151.102;2023-07-22T14:19:14;5.90;99.90
39453;DHT22;25154;-33.684;151.102;2023-07-22T14:24:17;6.10;99.90
39453;DHT22;25154;-33.684;151.102;2023-07-22T14:29:20;6.00;99.90
39453;DHT22;25154;-33.684;151.102;2023-07-22T14:34:23;5.90;99.90
39453;DHT22;25154;-33.684;151.102;2023-07-22T14:39:26;6.10;99.90
39453;DHT22;25154;-33.684;151.102;2023-07-22T14:44:29;5.80;99.90
39453;DHT22;25154;-33.684;151.102;2023-07-22T14:49:32;6.00;99.90
39453;DHT22;25154;-33.684;151.102;2023-07-22T14:54:35;5.80;99.90
39453;DHT22;25154;-33.684;151.102;2023-07-22T14:59:37;5.80;99.90
39453;DHT22;25154;-33.684;151.102;2023-07-22T15:04:40;5.80;99.90
39453;DHT22;25154;-33.684;151.102;2023-07-22T15:09:43;6.10;99.90
39453;DHT22;25154;-33.684;151.102;2023-07-22T15:14:45;6.20;99.90
39453;DHT22;25154;-33.684;151.102;2023-07-22T15:19:48;6.20;99.90
39453;DHT22;25154;-33.684;151.102;2023-07-22T15:24:51;6.10;99.90
39453;DHT22;25154;-33.684;151.102;2023-07-22T15:29:54;6.20;99.90
39453;DHT22;25154;-33.684;151.102;2023-07-22T15:34:56;6.50;99.90
39453;DHT22;25154;-33.684;151.102;2023-07-22T15:39:59;6.50;99.90
39453;DHT22;25154;-33.684;151.102;2023-07-22T15:45:02;6.70;99.90
39453;DHT22;25154;-33.684;151.102;2023-07-22T15:50:05;6.80;99.90
39453;DHT22;25154;-33.684;151.102;2023-07-22T15:55:09;6.80;99.90
39453;DHT22;25154;-33.684;151.102;2023-07-22T16:00:12;6.70;99.90
39453;DHT22;25154;-33.684;151.102;2023-07-22T16:05:15;6.40;99.90
39453;DHT22;25154;-33.684;151.102;2023-07-22T16:10:18;6.60;99.90
39453;DHT22;25154;-33.684;151.102;2023-07-22T16:15:21;6.50;99.90
39453;DHT22;25154;-33.684;151.102;2023-07-22T16:20:23;6.50;99.90
39453;DHT22;25154;-33.684;151.102;2023-07-22T16:25:26;6.40;99.90
39453;DHT22;25154;-33.684;151.102;2023-07-22T16:30:29;6.10;99.90
39453;DHT22;25154;-33.684;151.102;2023-07-22T16:35:31;6.00;99.90
39453;DHT22;25154;-33.684;151.102;2023-07-22T16:40:34;6.00;99.90
39453;DHT22;25154;-33.684;151.102;2023-07-22T16:45:37;6.10;99.90
39453;DHT22;25154;-33.684;151.102;2023-07-22T16:50:40;6.20;99.90
39453;DHT22;25154;-33.684;151.102;2023-07-22T16:55:42;6.10;99.90
39453;DHT22;25154;-33.684;151.102;2023-07-22T17:00:45;6.00;99.90
39453;DHT22;25154;-33.684;151.102;2023-07-22T17:05:49;6.10;99.90
39453;DHT22;25154;-33.684;151.102;2023-07-22T17:10:52;6.10;99.90
39453;DHT22;25154;-33.684;151.102;2023-07-22T17:15:55;6.10;99.90
39453;DHT22;25154;-33.684;151.102;2023-07-22T17:20:57;6.10;99.90
39453;DHT22;25154;-33.684;151.102;2023-07-22T17:26:00;6.10;99.90
39453;DHT22;25154;-33.684;151.102;2023-07-22T17:31:03;5.90;99.90
39453;DHT22;25154;-33.684;151.102;2023-07-22T17:36:05;6.00;99.90
39453;DHT22;25154;-33.684;151.102;2023-07-22T17:41:08;6.10;99.90
39453;DHT22;25154;-33.684;151.102;2023-07-22T17:46:11;6.00;99.90
39453;DHT22;25154;-33.684;151.102;2023-07-22T17:51:13;6.00;99.90
39453;DHT22;25154;-33.684;151.102;2023-07-22T17:56:16;5.80;99.90
39453;DHT22;25154;-33.684;151.102;2023-07-22T18:01:19;5.80;99.90
39453;DHT22;25154;-33.684;151.102;2023-07-22T18:06:22;5.90;99.90
39453;DHT22;25154;-33.684;151.102;2023-07-22T18:11:26;5.90;99.90
39453;DHT22;25154;-33.684;151.102;2023-07-22T18:16:29;6.00;99.90
39453;DHT22;25154;-33.684;151.102;2023-07-22T18:21:32;6.00;99.90
39453;DHT22;25154;-33.684;151.102;2023-07-22T18:26:34;6.00;99.90
39453;DHT22;25154;-33.684;151.102;2023-07-22T18:31:37;6.00;99.90
39453;DHT22;25154;-33.684;151.102;2023-07-22T18:36:40;6.20;99.90
39453;DHT22;25154;-33.684;151.102;2023-07-22T18:41:43;5.90;99.90
39453;DHT22;25154;-33.684;151.102;2023-07-22T18:46:47;5.70;99.90
39453;DHT22;25154;-33.684;151.102;2023-07-22T18:51:50;5.80;99.90
39453;DHT22;25154;-33.684;151.102;2023-07-22T18:56:54;5.90;99.90
39453;DHT22;25154;-33.684;151.102;2023-07-22T19:01:58;6.10;99.90
39453;DHT22;25154;-33.684;151.102;2023-07-22T19:07:01;6.20;99.90
39453;DHT22;25154;-33.684;151.102;2023-07-22T19:12:04;6.20;99.90
39453;DHT22;25154;-33.684;151.102;2023-07-22T19:17:07;6.20;99.90
39453;DHT22;25154;-33.684;151.102;2023-07-22T19:22:10;6.40;99.90
39453;DHT22;25154;-33.684;151.102;2023-07-22T19:27:13;6.60;99.90
39453;DHT22;25154;-33.684;151.102;2023-07-22T19:32:16;6.60;99.90
39453;DHT22;25154;-33.684;151.102;2023-07-22T19:37:18;6.70;99.90
39453;DHT22;25154;-33.684;151.102;2023-07-22T19:42:21;6.50;99.90
39453;DHT22;25154;-33.684;151.102;2023-07-22T19:47:24;6.50;99.90
39453;DHT22;25154;-33.684;151.102;2023-07-22T19:52:26;6.60;99.90
39453;DHT22;25154;-33.684;151.102;2023-07-22T19:57:29;6.70;99.90
39453;DHT22;25154;-33.684;151.102;2023-07-22T20:02:32;6.50;99.90
39453;DHT22;25154;-33.684;151.102;2023-07-22T20:07:34;6.40;99.90
39453;DHT22;25154;-33.684;151.102;2023-07-22T20:12:37;6.40;99.90
39453;DHT22;25154;-33.684;151.102;2023-07-22T20:17:40;6.30;99.90
39453;DHT22;25154;-33.684;151.102;2023-07-22T20:22:43;6.30;99.90
39453;DHT22;25154;-33.684;151.102;2023-07-22T20:27:49;6.20;99.90
39453;DHT22;25154;-33.684;151.102;2023-07-22T20:32:52;6.20;99.90
39453;DHT22;25154;-33.684;151.102;2023-07-22T20:37:55;6.20;99.90
39453;DHT22;25154;-33.684;151.102;2023-07-22T20:42:59;6.30;99.90
39453;DHT22;25154;-33.684;151.102;2023-07-22T20:48:01;6.30;99.90
39453;DHT22;25154;-33.684;151.102;2023-07-22T20:53:04;6.40;99.90
39453;DHT22;25154;-33.684;151.102;2023-07-22T20:58:06;6.40;99.90
39453;DHT22;25154;-33.684;151.102;2023-07-22T21:03:08;6.40;99.90
39453;DHT22;25154;-33.684;151.102;2023-07-22T21:08:11;6.40;99.90
39453;DHT22;25154;-33.684;151.102;2023-07-22T21:13:13;6.40;99.90
39453;DHT22;25154;-33.684;151.102;2023-07-22T21:18:15;6.30;99.90
39453;DHT22;25154;-33.684;151.102;2023-07-22T21:23:18;6.60;99.90
39453;DHT22;25154;-33.684;151.102;2023-07-22T21:28:20;6.60;99.90
39453;DHT22;25154;-33.684;151.102;2023-07-22T21:33:23;6.80;99.90
39453;DHT22;25154;-33.684;151.102;2023-07-22T21:38:26;6.80;99.90
39453;DHT22;25154;-33.684;151.102;2023-07-22T21:43:29;6.70;99.90
39453;DHT22;25154;-33.684;151.102;2023-07-22T21:48:31;6.70;99.90
39453;DHT22;25154;-33.684;151.102;2023-07-22T21:53:34;7.20;99.90
39453;DHT22;25154;-33.684;151.102;2023-07-22T21:58:37;7.10;99.90
39453;DHT22;25154;-33.684;151.102;2023-07-22T22:03:40;7.30;99.90
39453;DHT22;25154;-33.684;151.102;2023-07-22T22:08:42;7.60;99.90
39453;DHT22;25154;-33.684;151.102;2023-07-22T22:13:47;7.70;99.90
39453;DHT22;25154;-33.684;151.102;2023-07-22T22:18:49;7.90;99.90
39453;DHT22;25154;-33.684;151.102;2023-07-22T22:23:52;8.20;99.90
39453;DHT22;25154;-33.684;151.102;2023-07-22T22:28:55;8.40;99.90
39453;DHT22;25154;-33.684;151.102;2023-07-22T22:33:57;8.70;99.90
39453;DHT22;25154;-33.684;151.102;2023-07-22T22:39:00;8.80;99.90
39453;DHT22;25154;-33.684;151.102;2023-07-22T22:44:03;9.00;99.90
39453;DHT22;25154;-33.684;151.102;2023-07-22T22:49:06;9.20;99.90
39453;DHT22;25154;-33.684;151.102;2023-07-22T22:54:09;9.30;99.90
39453;DHT22;25154;-33.684;151.102;2023-07-22T22:59:11;9.50;99.90
39453;DHT22;25154;-33.684;151.102;2023-07-22T23:04:14;9.70;99.90
39453;DHT22;25154;-33.684;151.102;2023-07-22T23:09:18;9.90;99.90
39453;DHT22;25154;-33.684;151.102;2023-07-22T23:14:20;10.10;99.90
39453;DHT22;25154;-33.684;151.102;2023-07-22T23:19:22;10.30;99.90
39453;DHT22;25154;-33.684;151.102;2023-07-22T23:24:25;10.40;99.90
39453;DHT22;25154;-33.684;151.102;2023-07-22T23:29:27;10.50;99.90
39453;DHT22;25154;-33.684;151.102;2023-07-22T23:34:29;10.80;99.90
39453;DHT22;25154;-33.684;151.102;2023-07-22T23:39:31;11.10;99.90
39453;DHT22;25154;-33.684;151.102;2023-07-22T23:44:34;11.30;99.90
39453;DHT22;25154;-33.684;151.102;2023-07-22T23:49:38;11.50;99.90
39453;DHT22;25154;-33.684;151.102;2023-07-22T23:54:41;11.50;99.90
39453;DHT22;25154;-33.684;151.102;2023-07-22T23:59:43;11.90;99.90
